createdAt,value
2022-09-28T00:02:23.323Z,7.51
2022-09-28T00:04:49.803Z,7.43
2022-09-28T00:07:16.202Z,7.44
2022-09-28T00:09:43.181Z,7.49
2022-09-28T00:12:09.628Z,7.50
2022-09-28T00:14:37.034Z,7.54
2022-09-28T00:17:03.514Z,7.60
2022-09-28T00:19:29.880Z,7.63
2022-09-28T00:21:56.270Z,7.53
2022-09-28T00:24:27.334Z,7.57
2022-09-28T00:26:56.051Z,7.37
2022-09-28T00:29:34.550Z,7.40
2022-09-28T00:32:11.749Z,7.52
2022-09-28T00:34:45.927Z,7.58
2022-09-28T00:37:14.031Z,7.60
2022-09-28T00:39:44.354Z,7.59
2022-09-28T00:42:14.493Z,7.61
2022-09-28T00:44:47.834Z,7.58
2022-09-28T00:47:35.433Z,7.28
2022-09-28T00:50:20.382Z,7.46
2022-09-28T00:52:53.245Z,7.40
2022-09-28T00:55:27.831Z,7.30
2022-09-28T00:57:58.274Z,7.36
2022-09-28T01:00:24.901Z,7.53
2022-09-28T01:02:51.574Z,7.55
2022-09-28T01:05:20.783Z,7.61
2022-09-28T01:07:47.791Z,7.58
2022-09-28T01:10:14.874Z,7.61
2022-09-28T01:12:41.249Z,7.55
2022-09-28T01:15:08.161Z,7.53
2022-09-28T01:18:11.526Z,7.61
2022-09-28T01:20:51.175Z,7.64
2022-09-28T01:23:42.874Z,7.59
2022-09-28T01:26:34.405Z,7.60
2022-09-28T01:29:42.151Z,7.64
2022-09-28T01:32:23.469Z,7.60
2022-09-28T01:34:58.686Z,7.59
2022-09-28T01:37:35.449Z,7.43
2022-09-28T01:40:05.438Z,7.66
2022-09-28T01:42:36.130Z,7.69
2022-09-28T01:45:10.512Z,7.73
2022-09-28T01:47:39.883Z,7.59
2022-09-28T01:50:16.699Z,7.49
2022-09-28T01:52:50.069Z,7.47
2022-09-28T01:55:39.272Z,7.37
2022-09-28T01:58:23.193Z,7.56
2022-09-28T02:00:57.118Z,7.58
2022-09-28T02:03:42.953Z,7.43
2022-09-28T02:06:18.506Z,7.52
2022-09-28T02:08:56.076Z,7.46
2022-09-28T02:11:23.149Z,7.41
2022-09-28T02:14:10.900Z,7.24
2022-09-28T02:16:41.263Z,7.27
2022-09-28T02:19:13.942Z,7.24
2022-09-28T02:21:47.551Z,7.38
2022-09-28T02:24:21.400Z,7.43
2022-09-28T02:26:50.968Z,7.29
2022-09-28T02:29:17.625Z,7.36
2022-09-28T02:31:44.216Z,7.37
2022-09-28T02:34:10.684Z,7.37
2022-09-28T02:36:37.211Z,7.39
2022-09-28T02:39:03.655Z,7.40
2022-09-28T02:41:48.056Z,7.31
2022-09-28T02:44:36.212Z,7.41
2022-09-28T02:47:02.602Z,7.44
2022-09-28T02:50:05.375Z,7.42
2022-09-28T02:52:50.114Z,7.49
2022-09-28T02:55:31.846Z,7.45
2022-09-28T02:58:24.162Z,7.45
2022-09-28T03:01:01.322Z,7.37
2022-09-28T03:03:37.713Z,7.38
2022-09-28T03:06:29.325Z,7.30
2022-09-28T03:09:14.129Z,7.15
2022-09-28T03:11:55.846Z,7.24
2022-09-28T03:14:22.421Z,7.22
2022-09-28T03:16:48.823Z,7.18
2022-09-28T03:19:19.901Z,7.20
2022-09-28T03:21:46.284Z,7.20
2022-09-28T03:24:13.086Z,7.18
2022-09-28T03:26:39.631Z,7.18
2022-09-28T03:29:06.277Z,7.25
2022-09-28T03:31:32.785Z,7.26
2022-09-28T03:33:59.231Z,7.23
2022-09-28T03:36:25.678Z,7.24
2022-09-28T03:38:55.493Z,7.18
2022-09-28T03:41:23.550Z,7.12
2022-09-28T03:43:50.071Z,7.04
2022-09-28T03:46:16.519Z,7.06
2022-09-28T03:48:42.943Z,7.05
2022-09-28T03:51:11.979Z,7.12
2022-09-28T03:53:39.868Z,7.15
2022-09-28T03:56:10.922Z,7.12
2022-09-28T03:58:37.832Z,7.16
2022-09-28T04:01:06.899Z,7.19
2022-09-28T04:03:33.621Z,7.24
2022-09-28T04:06:00.529Z,7.22
2022-09-28T04:08:27.135Z,7.21
2022-09-28T04:10:57.747Z,7.18
2022-09-28T04:13:25.014Z,7.11
2022-09-28T04:15:59.387Z,7.11
2022-09-28T04:18:26.055Z,7.12
2022-09-28T04:21:10.789Z,7.23
2022-09-28T04:23:39.570Z,7.24
2022-09-28T04:26:07.729Z,7.22
2022-09-28T04:28:53.159Z,7.29
2022-09-28T04:31:22.621Z,7.34
2022-09-28T04:33:49.242Z,7.34
2022-09-28T04:36:15.666Z,7.31
2022-09-28T04:38:52.751Z,7.30
2022-09-28T04:41:20.031Z,7.27
2022-09-28T04:43:47.528Z,7.27
2022-09-28T04:46:14.737Z,7.28
2022-09-28T04:48:41.202Z,7.27
2022-09-28T04:51:07.770Z,7.29
2022-09-28T04:53:35.080Z,7.31
2022-09-28T04:56:04.296Z,7.27
2022-09-28T04:58:31.710Z,7.39
2022-09-28T05:01:00.797Z,7.38
2022-09-28T05:03:27.996Z,7.40
2022-09-28T05:05:54.558Z,7.44
2022-09-28T05:08:21.127Z,7.44
2022-09-28T05:10:47.554Z,7.43
2022-09-28T05:13:15.360Z,7.43
2022-09-28T05:15:42.499Z,7.48
2022-09-28T05:18:09.198Z,7.52
2022-09-28T05:20:41.467Z,7.58
2022-09-28T05:23:10.227Z,7.55
2022-09-28T05:25:36.955Z,7.56
2022-09-28T05:28:03.772Z,7.43
2022-09-28T05:30:30.148Z,7.50
2022-09-28T05:32:56.515Z,7.46
2022-09-28T05:35:23.143Z,7.50
2022-09-28T05:37:49.647Z,7.58
2022-09-28T05:40:16.824Z,7.59
2022-09-28T05:42:43.372Z,7.57
2022-09-28T05:45:10.571Z,7.57
2022-09-28T05:47:40.962Z,7.48
2022-09-28T05:50:09.398Z,7.49
2022-09-28T05:52:35.756Z,7.34
2022-09-28T05:55:02.675Z,7.42
2022-09-28T05:57:30.299Z,7.43
2022-09-28T05:59:56.703Z,7.46
2022-09-28T06:02:23.507Z,7.46
2022-09-28T06:04:51.176Z,7.50
2022-09-28T06:07:21.914Z,7.48
2022-09-28T06:09:48.289Z,7.63
2022-09-28T06:12:15.997Z,7.68
2022-09-28T06:14:42.422Z,7.75
2022-09-28T06:17:09.119Z,7.79
2022-09-28T06:19:35.524Z,7.89
2022-09-28T06:22:02.074Z,7.96
2022-09-28T06:24:28.466Z,7.90
2022-09-28T06:26:54.938Z,7.93
2022-09-28T06:29:21.337Z,7.85
2022-09-28T06:31:48.041Z,7.92
2022-09-28T06:34:14.558Z,7.87
2022-09-28T06:36:41.185Z,7.81
2022-09-28T06:39:07.798Z,7.77
2022-09-28T06:41:34.145Z,7.78
2022-09-28T06:44:01.975Z,7.85
2022-09-28T06:46:28.522Z,7.77
2022-09-28T06:48:55.049Z,7.81
2022-09-28T06:51:21.888Z,7.80
2022-09-28T06:53:48.326Z,7.80
2022-09-28T06:56:14.692Z,7.82
2022-09-28T06:58:41.046Z,7.78
2022-09-28T07:01:07.550Z,7.77
2022-09-28T07:03:33.966Z,7.86
2022-09-28T07:06:00.417Z,7.88
2022-09-28T07:08:29.156Z,7.86
2022-09-28T07:10:56.363Z,7.99
2022-09-28T07:13:49.218Z,7.96
2022-09-28T07:16:16.446Z,8.02
2022-09-28T07:18:43.900Z,8.06
2022-09-28T07:21:21.441Z,8.17
2022-09-28T07:23:54.222Z,8.26
2022-09-28T07:26:23.637Z,8.39
2022-09-28T07:28:50.956Z,8.46
2022-09-28T07:31:17.411Z,8.54
2022-09-28T07:33:43.823Z,8.62
2022-09-28T07:36:10.717Z,8.68
2022-09-28T07:38:38.255Z,8.80
2022-09-28T07:41:14.223Z,8.92
2022-09-28T07:43:41.438Z,9.00
2022-09-28T07:46:12.365Z,9.09
2022-09-28T07:48:43.551Z,9.15
2022-09-28T07:51:10.356Z,9.33
2022-09-28T07:53:38.400Z,9.42
2022-09-28T07:56:07.297Z,9.58
2022-09-28T07:58:35.555Z,9.77
2022-09-28T08:01:07.857Z,9.95
2022-09-28T08:03:35.366Z,10.05
2022-09-28T08:06:04.772Z,10.19
2022-09-28T08:08:33.634Z,10.33
2022-09-28T08:11:00.046Z,10.48
2022-09-28T08:13:27.255Z,10.58
2022-09-28T08:15:54.488Z,10.86
2022-09-28T08:18:21.580Z,11.30
2022-09-28T08:21:06.625Z,11.76
2022-09-28T08:23:33.048Z,12.09
2022-09-28T08:25:59.560Z,12.25
2022-09-28T08:28:26.244Z,12.34
2022-09-28T08:30:52.724Z,12.63
2022-09-28T08:33:23.174Z,12.67
2022-09-28T08:35:57.528Z,12.38
2022-09-28T08:38:25.555Z,12.01
2022-09-28T08:41:10.453Z,11.68
2022-09-28T08:43:57.066Z,11.41
2022-09-28T08:46:29.190Z,10.97
2022-09-28T08:49:24.597Z,10.88
2022-09-28T08:51:58.231Z,10.71
2022-09-28T08:54:38.965Z,10.71
2022-09-28T08:57:19.116Z,10.59
2022-09-28T08:59:54.556Z,10.72
2022-09-28T09:02:27.317Z,10.87
2022-09-28T09:04:54.801Z,11.75
2022-09-28T09:07:39.938Z,12.86
2022-09-28T09:10:28.568Z,13.94
2022-09-28T09:13:14.908Z,15.02
2022-09-28T09:15:51.822Z,15.97
2022-09-28T09:18:22.947Z,16.43
2022-09-28T09:20:56.895Z,16.88
2022-09-28T09:23:46.089Z,17.07
2022-09-28T09:26:21.850Z,17.29
2022-09-28T09:28:58.890Z,17.93
2022-09-28T09:31:40.857Z,18.31
2022-09-28T09:34:33.931Z,18.33
2022-09-28T09:37:26.362Z,18.55
2022-09-28T09:40:26.248Z,17.86
2022-09-28T09:43:34.026Z,17.41
2022-09-28T09:46:23.109Z,16.87
2022-09-28T09:48:56.981Z,16.16
2022-09-28T09:51:57.410Z,16.07
2022-09-28T09:54:32.035Z,15.58
2022-09-28T09:57:06.328Z,16.20
2022-09-28T09:59:37.703Z,16.80
2022-09-28T10:02:19.506Z,17.55
2022-09-28T10:04:46.990Z,17.34
2022-09-28T10:07:22.170Z,16.96
2022-09-28T10:09:50.741Z,16.84
2022-09-28T10:12:21.717Z,16.82
2022-09-28T10:14:48.219Z,16.56
2022-09-28T10:17:18.148Z,16.03
2022-09-28T10:19:44.632Z,15.36
2022-09-28T10:22:16.469Z,14.89
2022-09-28T10:24:46.559Z,14.79
2022-09-28T10:27:26.764Z,15.03
2022-09-28T10:29:59.235Z,14.82
2022-09-28T10:32:35.918Z,14.75
2022-09-28T10:35:21.565Z,14.35
2022-09-28T10:37:59.638Z,13.76
2022-09-28T10:40:50.670Z,13.20
2022-09-28T10:43:26.503Z,12.95
2022-09-28T10:46:13.503Z,12.73
2022-09-28T10:48:58.452Z,12.54
2022-09-28T10:51:53.323Z,12.42
2022-09-28T10:54:30.913Z,12.23
2022-09-28T10:56:58.610Z,12.13
2022-09-28T10:59:31.181Z,12.13
2022-09-28T11:02:09.535Z,12.02
2022-09-28T11:04:42.501Z,12.06
2022-09-28T11:07:25.956Z,12.28
2022-09-28T11:09:54.599Z,12.69
2022-09-28T11:12:23.860Z,13.05
2022-09-28T11:14:58.276Z,13.42
2022-09-28T11:17:33.583Z,13.90
2022-09-28T11:20:26.101Z,14.23
2022-09-28T11:22:59.633Z,14.55
2022-09-28T11:25:28.460Z,14.81
2022-09-28T11:27:56.017Z,14.84
2022-09-28T11:30:33.762Z,14.69
2022-09-28T11:33:08.071Z,14.69
2022-09-28T11:35:41.945Z,14.56
2022-09-28T11:38:29.191Z,14.62
2022-09-28T11:41:25.867Z,14.73
2022-09-28T11:44:07.144Z,14.52
2022-09-28T11:46:59.651Z,14.31
2022-09-28T11:49:33.709Z,14.17
2022-09-28T11:52:06.823Z,14.00
2022-09-28T11:54:55.614Z,13.89
2022-09-28T11:57:27.494Z,13.80
2022-09-28T11:59:59.882Z,13.64
2022-09-28T12:02:36.836Z,13.57
2022-09-28T12:05:20.674Z,13.46
2022-09-28T12:07:52.202Z,13.47
2022-09-28T12:10:27.065Z,13.45
2022-09-28T12:13:03.912Z,13.46
2022-09-28T12:16:20.072Z,13.43
2022-09-28T12:21:42.519Z,13.52
2022-09-28T12:24:17.883Z,13.56
2022-09-28T12:26:51.694Z,13.60
2022-09-28T12:29:32.051Z,13.58
2022-09-28T12:32:15.191Z,13.54
2022-09-28T12:34:42.944Z,13.61
2022-09-28T12:37:44.563Z,13.62
2022-09-28T12:40:37.904Z,13.63
2022-09-28T12:43:33.378Z,13.57
2022-09-28T12:46:17.598Z,13.57
2022-09-28T12:49:56.220Z,13.56
2022-09-28T12:51:59.567Z,13.54
2022-09-28T12:54:50.516Z,13.51
2022-09-28T12:57:41.947Z,13.51
2022-09-28T13:00:15.764Z,13.51
2022-09-28T13:03:02.322Z,13.46
2022-09-28T13:06:05.652Z,13.54
2022-09-28T13:08:44.181Z,13.50
2022-09-28T13:11:21.959Z,13.47
2022-09-28T13:14:03.039Z,13.48
2022-09-28T13:16:45.998Z,13.50
2022-09-28T13:19:38.276Z,13.43
2022-09-28T13:22:28.842Z,13.45
2022-09-28T13:24:59.390Z,13.37
2022-09-28T13:27:33.374Z,13.16
2022-09-28T13:30:02.963Z,13.18
2022-09-28T13:32:32.713Z,13.10
2022-09-28T13:35:02.337Z,13.05
2022-09-28T13:37:29.739Z,12.94
2022-09-28T13:40:05.760Z,12.88
2022-09-28T13:42:44.304Z,12.77
2022-09-28T13:45:23.008Z,12.68
2022-09-28T13:48:13.236Z,12.60
2022-09-28T13:50:58.342Z,12.52
2022-09-28T13:54:03.428Z,12.43
2022-09-28T13:56:53.562Z,12.39
2022-09-28T13:59:30.242Z,12.37
2022-09-28T14:02:07.069Z,12.25
2022-09-28T14:05:25.514Z,12.39
2022-09-28T14:08:14.539Z,12.41
2022-09-28T14:10:52.025Z,12.56
2022-09-28T14:14:08.546Z,12.63
2022-09-28T14:16:36.850Z,12.62
2022-09-28T14:19:12.749Z,12.67
2022-09-28T14:21:59.746Z,12.68
2022-09-28T14:24:38.447Z,12.76
2022-09-28T14:27:41.792Z,12.76
2022-09-28T14:30:10.907Z,12.78
2022-09-28T14:32:38.884Z,12.80
2022-09-28T14:35:23.670Z,12.84
2022-09-28T14:38:13.788Z,12.79
2022-09-28T14:41:10.536Z,12.85
2022-09-28T14:43:46.056Z,12.88
2022-09-28T14:46:15.653Z,12.87
2022-09-28T14:48:48.985Z,12.84
2022-09-28T14:51:27.572Z,12.85
2022-09-28T14:53:56.497Z,12.78
2022-09-28T14:56:23.889Z,12.76
2022-09-28T14:58:54.906Z,12.75
2022-09-28T15:01:24.645Z,12.70
2022-09-28T15:04:02.044Z,12.73
2022-09-28T15:06:44.935Z,12.77
2022-09-28T15:09:32.005Z,12.79
2022-09-28T15:12:02.555Z,12.78
2022-09-28T15:14:31.708Z,12.76
2022-09-28T15:17:02.890Z,12.80
2022-09-28T15:19:38.184Z,12.80
2022-09-28T15:22:17.158Z,12.75
2022-09-28T15:25:02.903Z,12.74
2022-09-28T15:27:38.053Z,12.68
2022-09-28T15:30:31.812Z,12.69
2022-09-28T15:33:19.538Z,12.65
2022-09-28T15:35:59.346Z,12.32
2022-09-28T15:38:26.009Z,12.53
2022-09-28T15:40:52.687Z,12.52
2022-09-28T15:43:33.690Z,12.46
2022-09-28T15:46:20.948Z,12.43
2022-09-28T15:48:53.645Z,12.36
2022-09-28T15:51:22.090Z,12.35
2022-09-28T15:54:09.194Z,12.33
2022-09-28T15:57:01.940Z,12.26
2022-09-28T15:59:39.544Z,12.22
2022-09-28T16:02:18.991Z,12.21
2022-09-28T16:04:47.924Z,12.23
2022-09-28T16:07:38.688Z,12.14
2022-09-28T16:10:14.354Z,12.06
2022-09-28T16:12:42.432Z,11.97
2022-09-28T16:15:20.601Z,11.94
2022-09-28T16:18:06.730Z,11.87
2022-09-28T16:20:36.355Z,11.87
2022-09-28T16:23:19.065Z,11.85
2022-09-28T16:26:17.392Z,11.85
2022-09-28T16:28:46.005Z,11.92
2022-09-28T16:31:12.394Z,11.94
2022-09-28T16:34:21.513Z,11.97
2022-09-28T16:36:49.220Z,11.91
2022-09-28T16:39:16.983Z,11.90
2022-09-28T16:41:51.615Z,11.84
2022-09-28T16:44:24.848Z,11.83
2022-09-28T16:46:55.107Z,11.70
2022-09-28T16:49:23.741Z,11.71
2022-09-28T16:51:50.389Z,11.54
2022-09-28T16:54:41.132Z,11.36
2022-09-28T16:57:11.388Z,11.32
2022-09-28T16:59:38.416Z,11.29
2022-09-28T17:02:45.145Z,11.23
2022-09-28T17:05:07.108Z,11.18
2022-09-28T17:07:34.135Z,11.10
2022-09-28T17:10:01.498Z,10.98
2022-09-28T17:12:28.892Z,10.85
2022-09-28T17:14:55.408Z,10.74
2022-09-28T17:17:22.698Z,10.58
2022-09-28T17:19:50.126Z,10.62
2022-09-28T17:22:18.322Z,10.54
2022-09-28T17:24:46.102Z,10.41
2022-09-28T17:27:19.294Z,10.42
2022-09-28T17:29:45.681Z,10.43
2022-09-28T17:32:18.148Z,10.41
2022-09-28T17:34:51.521Z,10.38
2022-09-28T17:37:22.539Z,10.27
2022-09-28T17:39:48.924Z,10.18
2022-09-28T17:42:17.190Z,10.14
2022-09-28T17:44:43.567Z,10.11
2022-09-28T17:47:11.300Z,10.11
2022-09-28T17:49:38.802Z,10.06
2022-09-28T17:52:05.529Z,9.99
2022-09-28T17:54:33.743Z,9.84
2022-09-28T17:57:00.288Z,9.77
2022-09-28T17:59:28.044Z,9.80
2022-09-28T18:01:54.555Z,9.92
2022-09-28T18:04:47.117Z,9.81
2022-09-28T18:07:07.484Z,9.75
2022-09-28T18:09:34.085Z,9.79
2022-09-28T18:12:04.107Z,9.77
2022-09-28T18:14:30.674Z,9.79
2022-09-28T18:16:57.276Z,9.79
2022-09-28T18:19:24.488Z,9.85
2022-09-28T18:21:52.479Z,9.99
2022-09-28T18:24:19.181Z,10.00
2022-09-28T18:26:45.600Z,9.98
2022-09-28T18:29:12.070Z,9.99
2022-09-28T18:31:39.062Z,9.99
2022-09-28T18:34:06.170Z,9.90
2022-09-28T18:36:35.810Z,9.99
2022-09-28T18:39:02.889Z,9.95
2022-09-28T18:41:29.355Z,9.93
2022-09-28T18:44:00.640Z,9.90
2022-09-28T18:46:28.523Z,9.95
2022-09-28T18:48:55.293Z,9.94
2022-09-28T18:51:22.352Z,9.89
2022-09-28T18:53:49.038Z,9.94
2022-09-28T18:56:21.044Z,9.81
2022-09-28T18:58:51.157Z,9.88
2022-09-28T19:01:36.255Z,9.75
2022-09-28T19:04:05.421Z,9.62
2022-09-28T19:06:34.234Z,9.78
2022-09-28T19:09:01.349Z,9.75
2022-09-28T19:11:28.649Z,9.72
2022-09-28T19:13:55.743Z,9.64
2022-09-28T19:16:26.030Z,9.57
2022-09-28T19:18:53.565Z,9.70
2022-09-28T19:21:20.220Z,9.72
2022-09-28T19:23:49.748Z,9.74
2022-09-28T19:26:20.753Z,9.70
2022-09-28T19:28:47.790Z,9.53
2022-09-28T19:31:14.481Z,9.55
2022-09-28T19:33:41.700Z,9.50
2022-09-28T19:36:10.852Z,9.40
2022-09-28T19:38:38.631Z,9.31
2022-09-28T19:41:10.164Z,9.40
2022-09-28T19:43:36.625Z,9.45
2022-09-28T19:46:06.918Z,9.40
2022-09-28T19:48:34.367Z,9.35
2022-09-28T19:51:03.742Z,9.24
2022-09-28T19:53:32.932Z,9.19
2022-09-28T19:56:05.356Z,9.27
2022-09-28T19:58:34.865Z,9.04
2022-09-28T20:01:07.926Z,9.34
2022-09-28T20:03:35.294Z,9.32
2022-09-28T20:06:02.350Z,9.19
2022-09-28T20:08:32.105Z,9.34
2022-09-28T20:10:59.782Z,9.27
2022-09-28T20:13:34.792Z,9.24
2022-09-28T20:16:12.504Z,9.27
2022-09-28T20:18:40.287Z,9.31
2022-09-28T20:21:17.116Z,9.33
2022-09-28T20:23:45.607Z,9.33
2022-09-28T20:26:12.708Z,9.40
2022-09-28T20:28:39.505Z,9.34
2022-09-28T20:31:12.419Z,9.15
2022-09-28T20:33:39.452Z,9.30
2022-09-28T20:36:08.171Z,9.34
2022-09-28T20:38:35.162Z,9.39
2022-09-28T20:41:02.638Z,9.36
2022-09-28T20:43:31.972Z,9.35
2022-09-28T20:45:58.643Z,9.35
2022-09-28T20:48:26.191Z,9.36
2022-09-28T20:51:03.791Z,9.33
2022-09-28T20:53:31.284Z,9.40
2022-09-28T20:55:59.900Z,9.42
2022-09-28T20:58:27.211Z,9.35
2022-09-28T21:01:02.698Z,9.24
2022-09-28T21:03:29.313Z,9.28
2022-09-28T21:05:55.775Z,9.13
2022-09-28T21:08:23.799Z,9.10
2022-09-28T21:10:52.656Z,9.00
2022-09-28T21:13:19.823Z,8.90
2022-09-28T21:15:47.413Z,8.90
2022-09-28T21:18:13.837Z,8.81
2022-09-28T21:20:48.549Z,8.72
2022-09-28T21:23:16.586Z,8.95
2022-09-28T21:25:45.563Z,9.04
2022-09-28T21:28:17.975Z,8.97
2022-09-28T21:30:45.477Z,8.93
2022-09-28T21:33:11.845Z,8.85
2022-09-28T21:35:39.299Z,8.78
2022-09-28T21:38:05.757Z,8.66
2022-09-28T21:40:32.476Z,8.62
2022-09-28T21:42:58.945Z,8.61
2022-09-28T21:45:25.330Z,8.60
2022-09-28T21:47:53.455Z,8.62
2022-09-28T21:50:22.707Z,8.56
2022-09-28T21:52:50.681Z,8.55
2022-09-28T21:55:17.447Z,8.57
2022-09-28T21:57:47.893Z,8.56
2022-09-28T22:00:16.293Z,8.52
2022-09-28T22:02:43.812Z,8.45
2022-09-28T22:05:11.399Z,8.45
2022-09-28T22:07:39.481Z,8.34
2022-09-28T22:10:07.433Z,8.27
2022-09-28T22:12:33.910Z,8.26
2022-09-28T22:15:00.394Z,8.27
2022-09-28T22:17:26.775Z,8.29
2022-09-28T22:19:53.329Z,8.20
2022-09-28T22:22:19.841Z,8.16
2022-09-28T22:24:46.245Z,8.11
2022-09-28T22:27:12.919Z,8.09
2022-09-28T22:29:39.274Z,8.04
2022-09-28T22:32:07.458Z,8.02
2022-09-28T22:34:33.954Z,8.03
2022-09-28T22:37:04.029Z,7.97
2022-09-28T22:39:36.702Z,7.95
2022-09-28T22:42:04.077Z,7.91
2022-09-28T22:44:30.471Z,7.80
2022-09-28T22:46:56.946Z,7.77
2022-09-28T22:49:23.715Z,7.73
2022-09-28T22:51:50.233Z,7.71
2022-09-28T22:54:16.728Z,7.71
2022-09-28T22:56:43.681Z,7.72
2022-09-28T22:59:11.579Z,7.68
2022-09-28T23:01:38.303Z,7.68
2022-09-28T23:04:04.713Z,7.69
2022-09-28T23:06:31.134Z,7.67
2022-09-28T23:08:57.947Z,7.66
2022-09-28T23:11:24.787Z,7.68
2022-09-28T23:13:52.787Z,7.59
2022-09-28T23:16:20.088Z,7.65
2022-09-28T23:18:46.788Z,7.64
2022-09-28T23:21:18.113Z,7.65
2022-09-28T23:23:47.136Z,7.67
2022-09-28T23:26:16.554Z,7.70
2022-09-28T23:28:44.003Z,7.68
2022-09-28T23:31:13.711Z,7.71
2022-09-28T23:33:40.467Z,7.65
2022-09-28T23:36:07.445Z,7.66
2022-09-28T23:38:34.124Z,7.67
2022-09-28T23:41:00.586Z,7.64
2022-09-28T23:43:27.052Z,7.59
2022-09-28T23:45:53.511Z,7.56
2022-09-28T23:48:19.870Z,7.64
2022-09-28T23:50:46.384Z,7.60
2022-09-28T23:53:14.483Z,7.65
2022-09-28T23:55:44.185Z,7.68
2022-09-28T23:58:11.657Z,7.67
